Time;durP1;ratioP1;P1;durP2;ratioP2;P2;SDS_P1;SDS_P2;PMS_P1;PMS_P2;Temp;Humidity;BMP_temperature;BMP_pressure;BME280_temperature;BME280_humidity;BME280_pressure;Samples;Min_cycle;Max_cycle;Signal;HPM_P1;HPM_P2
2022/04/20 00:01:58;;;;;;;6.70;4.90;;;;;;;;;;4996234;28;20081;-78
2022/04/20 00:04:25;;;;;;;6.45;4.35;;;;;;;;;;5000260;28;20057;-79
2022/04/20 00:06:52;;;;;;;6.38;4.55;;;;;;;;;;5001243;28;20046;-78
2022/04/20 00:09:20;;;;;;;7.05;4.85;;;;;;;;;;5000708;28;20051;-78
2022/04/20 00:11:47;;;;;;;7.93;5.13;;;;;;;;;;5001879;28;20058;-78
2022/04/20 00:14:14;;;;;;;7.28;5.22;;;;;;;;;;4998528;28;20050;-80
2022/04/20 00:16:40;;;;;;;8.20;5.57;;;;;;;;;;4997672;28;20050;-79
2022/04/20 00:19:07;;;;;;;7.45;5.28;;;;;;;;;;4997398;28;20453;-79
2022/04/20 00:21:34;;;;;;;7.50;5.15;;;;;;;;;;4997662;28;20181;-78
2022/04/20 00:24:01;;;;;;;7.72;5.45;;;;;;;;;;4997268;28;20498;-79
2022/04/20 00:26:29;;;;;;;7.85;5.35;;;;;;;;;;4996785;28;20677;-78
2022/04/20 00:28:56;;;;;;;6.97;5.50;;;;;;;;;;4996960;28;20081;-79
2022/04/20 00:31:22;;;;;;;9.27;6.20;;;;;;;;;;4995843;28;20054;-79
2022/04/20 00:33:49;;;;;;;8.00;5.70;;;;;;;;;;4996531;28;20520;-78
2022/04/20 00:36:16;;;;;;;10.07;5.90;;;;;;;;;;4996814;28;20050;-78
2022/04/20 00:38:43;;;;;;;8.43;5.32;;;;;;;;;;4997298;28;20042;-80
2022/04/20 00:41:09;;;;;;;8.95;5.82;;;;;;;;;;4998098;28;20046;-79
2022/04/20 00:43:38;;;;;;;7.95;5.90;;;;;;;;;;5000103;28;20108;-78
2022/04/20 00:46:06;;;;;;;7.53;5.43;;;;;;;;;;5001638;28;20077;-79
2022/04/20 00:48:35;;;;;;;8.00;5.50;;;;;;;;;;4998235;28;20507;-80
2022/04/20 00:51:02;;;;;;;7.57;5.78;;;;;;;;;;4996089;28;20086;-79
2022/04/20 00:53:29;;;;;;;8.25;6.28;;;;;;;;;;4996778;28;20564;-80
2022/04/20 00:55:56;;;;;;;7.45;5.55;;;;;;;;;;4996628;28;20046;-80
2022/04/20 00:58:23;;;;;;;7.68;5.40;;;;;;;;;;4996578;28;20046;-79
2022/04/20 01:00:51;;;;;;;10.07;6.53;;;;;;;;;;4996750;28;20050;-79
2022/04/20 01:03:18;;;;;;;8.43;5.57;;;;;;;;;;4996987;28;20050;-79
2022/04/20 01:05:45;;;;;;;7.75;5.95;;;;;;;;;;4996778;28;20105;-79
2022/04/20 01:08:12;;;;;;;8.02;5.55;;;;;;;;;;4997004;28;20054;-80
2022/04/20 01:10:38;;;;;;;8.57;5.60;;;;;;;;;;4997817;28;20050;-79
2022/04/20 01:13:06;;;;;;;7.10;5.40;;;;;;;;;;5000635;28;20096;-78
2022/04/20 01:15:34;;;;;;;8.60;5.93;;;;;;;;;;4999244;28;20054;-80
2022/04/20 01:18:11;;;;;;;7.97;5.68;;;;;;;;;;4997269;28;20050;-79
2022/04/20 01:20:39;;;;;;;8.45;5.28;;;;;;;;;;4994413;28;20047;-78
2022/04/20 01:23:06;;;;;;;7.90;6.35;;;;;;;;;;5003613;28;20050;-78
2022/04/20 01:25:32;;;;;;;9.32;6.20;;;;;;;;;;5018910;28;20046;-78
2022/04/20 01:28:00;;;;;;;9.02;5.78;;;;;;;;;;5019030;28;20054;-79
2022/04/20 01:30:27;;;;;;;8.82;5.78;;;;;;;;;;5019701;28;20046;-80
2022/04/20 01:32:55;;;;;;;10.30;6.88;;;;;;;;;;5007011;28;20489;-79
2022/04/20 01:35:22;;;;;;;8.38;5.93;;;;;;;;;;5001208;28;20077;-78
2022/04/20 01:37:51;;;;;;;7.60;6.00;;;;;;;;;;5003867;28;20085;-78
2022/04/20 01:40:18;;;;;;;9.25;6.25;;;;;;;;;;5004784;28;20042;-79
2022/04/20 01:42:45;;;;;;;9.77;5.88;;;;;;;;;;5004486;28;20116;-79
2022/04/20 01:45:12;;;;;;;8.10;5.80;;;;;;;;;;5000029;28;20046;-80
2022/04/20 01:47:39;;;;;;;7.00;5.45;;;;;;;;;;5000853;28;20046;-81
2022/04/20 01:50:07;;;;;;;7.45;5.38;;;;;;;;;;5001115;28;20104;-81
2022/04/20 01:52:34;;;;;;;7.43;5.75;;;;;;;;;;5004471;28;20053;-80
2022/04/20 01:55:02;;;;;;;9.07;5.88;;;;;;;;;;5005250;28;20465;-80
2022/04/20 01:57:28;;;;;;;7.40;5.80;;;;;;;;;;5004867;28;20046;-80
2022/04/20 01:59:55;;;;;;;8.45;5.90;;;;;;;;;;5005933;28;20042;-80
2022/04/20 02:02:38;;;;;;;8.43;6.32;;;;;;;;;;5004840;28;20395;-80
2022/04/20 02:05:07;;;;;;;7.22;5.57;;;;;;;;;;5004217;28;20050;-80
2022/04/20 02:07:34;;;;;;;8.35;5.82;;;;;;;;;;5003437;28;20058;-79
2022/04/20 02:10:04;;;;;;;7.35;5.53;;;;;;;;;;5003053;28;20053;-80
2022/04/20 02:12:31;;;;;;;8.80;5.88;;;;;;;;;;5002956;28;20046;-80
2022/04/20 02:14:58;;;;;;;8.93;6.45;;;;;;;;;;5002059;28;20101;-79
2022/04/20 02:17:25;;;;;;;7.60;5.80;;;;;;;;;;5002053;28;20046;-79
2022/04/20 02:19:52;;;;;;;7.93;6.05;;;;;;;;;;5001575;28;20061;-78
2022/04/20 02:22:18;;;;;;;8.07;6.28;;;;;;;;;;5002343;28;20488;-80
2022/04/20 02:24:45;;;;;;;9.95;6.80;;;;;;;;;;5000970;28;20046;-79
2022/04/20 02:27:14;;;;;;;7.70;5.70;;;;;;;;;;5001487;28;20050;-80
2022/04/20 02:29:40;;;;;;;7.88;5.97;;;;;;;;;;5001319;28;20516;-79
2022/04/20 02:32:09;;;;;;;7.40;5.72;;;;;;;;;;5002029;28;20158;-80
2022/04/20 02:34:36;;;;;;;7.93;6.00;;;;;;;;;;5001622;28;20137;-79
2022/04/20 02:37:04;;;;;;;9.13;6.63;;;;;;;;;;5000999;28;20124;-80
2022/04/20 02:39:31;;;;;;;8.48;6.65;;;;;;;;;;5000521;28;20112;-79
2022/04/20 02:41:59;;;;;;;8.57;6.20;;;;;;;;;;5000098;28;20053;-80
2022/04/20 02:44:27;;;;;;;7.88;6.40;;;;;;;;;;5000326;28;20096;-80
2022/04/20 02:46:54;;;;;;;10.38;7.35;;;;;;;;;;5016735;28;20129;-80
2022/04/20 02:49:21;;;;;;;7.82;6.20;;;;;;;;;;5020041;28;20042;-79
2022/04/20 02:51:48;;;;;;;8.68;6.63;;;;;;;;;;5019762;28;20050;-79
2022/04/20 02:54:15;;;;;;;9.48;7.22;;;;;;;;;;5020145;28;20104;-80
2022/04/20 02:56:42;;;;;;;9.38;6.93;;;;;;;;;;5019664;28;20053;-80
2022/04/20 02:59:08;;;;;;;9.73;7.57;;;;;;;;;;5019520;28;20513;-80
2022/04/20 03:01:37;;;;;;;10.48;7.50;;;;;;;;;;5019577;28;20046;-79
2022/04/20 03:04:04;;;;;;;11.00;7.82;;;;;;;;;;5019987;28;20472;-80
2022/04/20 03:06:31;;;;;;;10.52;7.68;;;;;;;;;;5020008;28;20116;-79
2022/04/20 03:08:58;;;;;;;10.55;7.88;;;;;;;;;;5019988;28;20050;-79
2022/04/20 03:11:25;;;;;;;10.38;8.10;;;;;;;;;;5020080;28;20096;-80
2022/04/20 03:13:52;;;;;;;9.75;8.05;;;;;;;;;;5019442;28;20092;-79
2022/04/20 03:16:18;;;;;;;10.80;8.77;;;;;;;;;;5018990;28;20049;-79
2022/04/20 03:18:48;;;;;;;11.80;9.05;;;;;;;;;;5019301;28;20563;-79
2022/04/20 03:21:15;;;;;;;10.88;8.23;;;;;;;;;;5018864;28;20104;-79
2022/04/20 03:23:42;;;;;;;11.20;8.75;;;;;;;;;;5019222;28;20050;-79
2022/04/20 03:26:08;;;;;;;10.93;8.23;;;;;;;;;;5018915;28;20065;-79
2022/04/20 03:28:35;;;;;;;11.50;9.38;;;;;;;;;;5020289;28;20140;-81
2022/04/20 03:31:02;;;;;;;11.10;8.88;;;;;;;;;;5020687;28;20100;-79
2022/04/20 03:33:29;;;;;;;12.93;9.73;;;;;;;;;;5020314;28;20628;-79
2022/04/20 03:35:57;;;;;;;14.07;9.85;;;;;;;;;;5019524;28;20054;-79
2022/04/20 03:38:24;;;;;;;12.13;9.82;;;;;;;;;;5020111;28;20050;-79
2022/04/20 03:40:51;;;;;;;13.10;9.88;;;;;;;;;;5019777;28;20434;-79
2022/04/20 03:43:18;;;;;;;15.00;10.50;;;;;;;;;;5019733;28;20045;-79
2022/04/20 03:45:44;;;;;;;14.55;10.75;;;;;;;;;;5011379;28;20046;-79
2022/04/20 03:48:11;;;;;;;14.18;10.45;;;;;;;;;;4998429;28;20053;-79
2022/04/20 03:50:38;;;;;;;16.33;11.52;;;;;;;;;;5009979;28;20070;-78
2022/04/20 03:53:07;;;;;;;13.27;10.88;;;;;;;;;;5011482;28;20081;-80
2022/04/20 03:55:34;;;;;;;18.50;12.95;;;;;;;;;;5006842;28;20151;-78
2022/04/20 03:58:00;;;;;;;15.98;12.43;;;;;;;;;;5007744;28;20082;-79
2022/04/20 04:00:29;;;;;;;16.10;11.90;;;;;;;;;;5007165;28;20050;-79
2022/04/20 04:02:56;;;;;;;15.73;11.85;;;;;;;;;;5007675;28;20073;-79
2022/04/20 04:05:23;;;;;;;15.43;11.45;;;;;;;;;;5012344;28;20078;-80
2022/04/20 04:07:50;;;;;;;16.42;12.40;;;;;;;;;;5018226;28;20038;-81
2022/04/20 04:10:18;;;;;;;16.52;12.10;;;;;;;;;;5016807;28;20051;-80
2022/04/20 04:12:45;;;;;;;15.82;11.90;;;;;;;;;;5004251;28;20046;-79
2022/04/20 04:15:12;;;;;;;16.67;12.00;;;;;;;;;;5001257;28;20046;-79
2022/04/20 04:17:38;;;;;;;16.83;12.40;;;;;;;;;;4998921;28;20489;-79
2022/04/20 04:20:07;;;;;;;15.70;11.77;;;;;;;;;;4999723;28;20117;-81
2022/04/20 04:22:36;;;;;;;17.55;13.27;;;;;;;;;;4998873;28;20133;-80
2022/04/20 04:25:02;;;;;;;17.40;12.38;;;;;;;;;;4998288;28;20097;-79
2022/04/20 04:27:31;;;;;;;18.88;13.43;;;;;;;;;;4999137;28;20050;-80
2022/04/20 04:29:58;;;;;;;16.88;12.35;;;;;;;;;;5000164;28;20042;-80
2022/04/20 04:32:25;;;;;;;18.23;12.25;;;;;;;;;;5001542;28;20065;-78
2022/04/20 04:34:52;;;;;;;16.55;11.90;;;;;;;;;;5016851;28;20042;-80
2022/04/20 04:37:18;;;;;;;17.65;11.82;;;;;;;;;;5017412;28;20051;-80
2022/04/20 04:39:46;;;;;;;18.00;12.57;;;;;;;;;;5016349;28;20054;-79
2022/04/20 04:42:12;;;;;;;17.02;12.48;;;;;;;;;;5001195;28;20065;-80
2022/04/20 04:44:40;;;;;;;15.80;12.68;;;;;;;;;;4993967;28;20101;-78
2022/04/20 04:49:52;;;;;;;17.77;11.75;;;;;;;;;;4994599;28;20061;-80
2022/04/20 04:52:19;;;;;;;15.80;11.52;;;;;;;;;;4995136;28;20129;-79
2022/04/20 04:54:46;;;;;;;15.73;11.65;;;;;;;;;;4993831;28;20054;-79
2022/04/20 04:57:13;;;;;;;14.30;11.80;;;;;;;;;;4998209;28;20085;-80
2022/04/20 04:59:42;;;;;;;16.20;11.95;;;;;;;;;;5000166;28;20043;-79
2022/04/20 05:02:09;;;;;;;15.43;11.50;;;;;;;;;;4999729;28;20042;-79
2022/04/20 05:04:37;;;;;;;15.75;11.35;;;;;;;;;;5002741;28;20093;-80
2022/04/20 05:07:04;;;;;;;15.98;11.55;;;;;;;;;;5003750;28;20442;-80
2022/04/20 05:09:31;;;;;;;17.52;12.15;;;;;;;;;;5002828;28;20054;-79
2022/04/20 05:11:58;;;;;;;14.77;11.23;;;;;;;;;;5002388;28;20121;-78
2022/04/20 05:14:25;;;;;;;16.23;11.23;;;;;;;;;;5001242;28;20054;-79
2022/04/20 05:16:55;;;;;;;16.73;11.15;;;;;;;;;;5000706;28;20093;-80
2022/04/20 05:19:22;;;;;;;16.63;11.60;;;;;;;;;;5001520;28;20057;-81
2022/04/20 05:21:49;;;;;;;18.05;11.60;;;;;;;;;;5000848;28;20046;-79
2022/04/20 05:24:16;;;;;;;16.38;11.43;;;;;;;;;;5001485;28;20051;-81
2022/04/20 05:26:43;;;;;;;15.85;11.15;;;;;;;;;;5001720;28;20050;-79
2022/04/20 05:29:11;;;;;;;15.68;11.52;;;;;;;;;;5001023;28;20129;-79
2022/04/20 05:31:37;;;;;;;16.25;11.82;;;;;;;;;;5000540;28;20101;-79
2022/04/20 05:34:06;;;;;;;17.00;12.20;;;;;;;;;;5006526;28;20050;-79
2022/04/20 05:41:39;;;;;;;15.90;10.85;;;;;;;;;;5009255;28;20520;-79
2022/04/20 05:42:05;;;;;;;17.80;11.23;;;;;;;;;;5005921;28;20096;-80
2022/04/20 05:44:32;;;;;;;14.73;10.30;;;;;;;;;;4996572;28;20105;-78
2022/04/20 05:46:59;;;;;;;14.80;11.27;;;;;;;;;;4999854;28;20046;-80
2022/04/20 05:49:27;;;;;;;14.45;10.70;;;;;;;;;;5000085;28;20062;-78
2022/04/20 05:51:54;;;;;;;14.20;10.10;;;;;;;;;;4999200;28;20061;-79
2022/04/20 05:54:21;;;;;;;15.70;11.27;;;;;;;;;;4999224;28;20050;-78
2022/04/20 05:56:50;;;;;;;15.68;10.85;;;;;;;;;;4997823;28;20042;-79
2022/04/20 05:59:17;;;;;;;15.85;10.98;;;;;;;;;;4998419;28;20107;-80
2022/04/20 06:01:44;;;;;;;15.32;10.65;;;;;;;;;;4998763;28;20054;-79
2022/04/20 06:04:11;;;;;;;14.90;11.30;;;;;;;;;;4996819;28;20066;-78
2022/04/20 06:06:39;;;;;;;14.60;10.70;;;;;;;;;;5009689;23;20046;-76
2022/04/20 06:09:06;;;;;;;15.70;11.15;;;;;;;;;;5034147;28;20049;-77
2022/04/20 06:11:32;;;;;;;15.90;10.88;;;;;;;;;;5037908;28;20049;-77
2022/04/20 06:13:59;;;;;;;15.27;10.95;;;;;;;;;;5038333;28;20045;-78
2022/04/20 06:16:26;;;;;;;15.30;10.75;;;;;;;;;;5037952;28;20526;-78
2022/04/20 06:18:53;;;;;;;14.60;10.20;;;;;;;;;;5039754;28;20511;-78
2022/04/20 06:21:20;;;;;;;17.15;10.50;;;;;;;;;;5041201;28;20045;-79
2022/04/20 06:23:48;;;;;;;22.30;11.40;;;;;;;;;;5039302;28;20508;-78
2022/04/20 06:26:15;;;;;;;18.50;10.40;;;;;;;;;;5039696;28;20050;-78
2022/04/20 06:28:42;;;;;;;14.00;10.75;;;;;;;;;;5039976;28;20076;-78
2022/04/20 06:31:11;;;;;;;14.10;10.57;;;;;;;;;;5042509;28;20080;-80
2022/04/20 06:33:38;;;;;;;14.65;10.27;;;;;;;;;;5041010;28;20148;-77
2022/04/20 06:36:05;;;;;;;15.90;11.38;;;;;;;;;;5038297;28;20042;-77
2022/04/20 06:38:32;;;;;;;15.52;10.98;;;;;;;;;;5037762;28;20428;-78
2022/04/20 06:41:00;;;;;;;15.65;9.88;;;;;;;;;;5038151;28;20103;-78
2022/04/20 06:43:27;;;;;;;13.60;9.80;;;;;;;;;;5039414;28;20081;-78
2022/04/20 06:45:55;;;;;;;14.65;10.77;;;;;;;;;;5030447;28;20046;-78
2022/04/20 06:48:21;;;;;;;14.40;9.73;;;;;;;;;;5020252;28;20112;-78
2022/04/20 06:50:48;;;;;;;14.63;10.43;;;;;;;;;;5013726;28;20073;-78
2022/04/20 06:58:45;;;;;;;14.23;9.98;;;;;;;;;;5016098;28;20563;-77
2022/04/20 07:01:14;;;;;;;12.57;9.27;;;;;;;;;;5015111;28;20131;-76
2022/04/20 07:03:42;;;;;;;15.95;9.80;;;;;;;;;;5015328;28;20136;-77
2022/04/20 07:06:09;;;;;;;13.13;9.73;;;;;;;;;;5014487;28;20050;-76
2022/04/20 07:08:36;;;;;;;13.98;10.63;;;;;;;;;;5015862;28;20084;-77
2022/04/20 07:11:05;;;;;;;14.35;9.98;;;;;;;;;;5033035;28;20033;-78
2022/04/20 07:13:31;;;;;;;13.90;9.35;;;;;;;;;;5036384;28;20050;-77
2022/04/20 07:15:58;;;;;;;15.13;10.57;;;;;;;;;;5017665;28;20464;-77
2022/04/20 07:18:25;;;;;;;15.05;10.15;;;;;;;;;;5012973;28;20092;-76
2022/04/20 07:20:52;;;;;;;14.40;10.27;;;;;;;;;;5012730;28;20046;-77
2022/04/20 07:23:19;;;;;;;14.95;9.57;;;;;;;;;;5015803;28;20050;-78
2022/04/20 07:25:46;;;;;;;38.47;25.40;;;;;;;;;;5013657;28;20053;-78
2022/04/20 07:28:14;;;;;;;48.70;26.33;;;;;;;;;;5013653;28;20413;-78
2022/04/20 07:30:41;;;;;;;17.17;14.25;;;;;;;;;;5012797;28;20386;-78
2022/04/20 07:33:07;;;;;;;13.93;9.77;;;;;;;;;;5013417;28;20402;-78
2022/04/20 07:35:34;;;;;;;13.27;10.00;;;;;;;;;;5013299;28;20551;-77
2022/04/20 07:38:01;;;;;;;17.23;10.93;;;;;;;;;;5011288;28;20054;-77
2022/04/20 07:40:28;;;;;;;14.60;9.13;;;;;;;;;;5011348;28;20045;-77
2022/04/20 07:42:55;;;;;;;12.07;8.82;;;;;;;;;;5011578;28;20070;-77
2022/04/20 07:45:26;;;;;;;13.02;9.23;;;;;;;;;;5006950;28;20519;-77
2022/04/20 07:47:54;;;;;;;12.63;9.18;;;;;;;;;;4992874;28;20456;-77
2022/04/20 07:50:23;;;;;;;12.20;8.98;;;;;;;;;;4995491;28;20517;-76
2022/04/20 07:52:52;;;;;;;12.18;7.97;;;;;;;;;;5011074;28;20065;-76
2022/04/20 07:55:20;;;;;;;12.35;8.55;;;;;;;;;;5014633;28;20119;-77
2022/04/20 07:57:50;;;;;;;11.38;8.48;;;;;;;;;;5012945;28;20096;-77
2022/04/20 08:00:18;;;;;;;11.00;8.70;;;;;;;;;;5011523;28;20046;-77
2022/04/20 08:02:47;;;;;;;12.00;7.93;;;;;;;;;;5010999;28;20136;-76
2022/04/20 08:05:15;;;;;;;11.60;8.48;;;;;;;;;;5011087;28;20670;-77
2022/04/20 08:07:43;;;;;;;11.80;8.27;;;;;;;;;;5011017;28;20046;-78
2022/04/20 08:10:11;;;;;;;11.77;8.05;;;;;;;;;;5013850;28;20112;-79
2022/04/20 08:12:39;;;;;;;11.90;8.15;;;;;;;;;;5016595;28;20085;-83
2022/04/20 08:15:07;;;;;;;10.60;7.60;;;;;;;;;;5014011;28;20049;-79
2022/04/20 08:17:35;;;;;;;11.95;7.90;;;;;;;;;;5010847;28;20053;-77
2022/04/20 08:20:05;;;;;;;11.88;8.23;;;;;;;;;;5011083;28;20050;-78
2022/04/20 08:22:32;;;;;;;11.15;9.00;;;;;;;;;;5014104;28;20076;-77
2022/04/20 08:25:02;;;;;;;10.13;7.85;;;;;;;;;;5013820;28;20053;-77
2022/04/20 08:27:30;;;;;;;10.75;7.90;;;;;;;;;;5017318;28;20042;-78
2022/04/20 08:29:57;;;;;;;11.80;8.27;;;;;;;;;;5021310;28;20076;-78
2022/04/20 08:32:24;;;;;;;11.50;8.15;;;;;;;;;;5019019;28;20057;-77
2022/04/20 08:34:51;;;;;;;10.70;7.82;;;;;;;;;;5019665;28;20053;-77
2022/04/20 08:37:21;;;;;;;13.68;8.95;;;;;;;;;;5019046;28;20054;-76
2022/04/20 08:39:49;;;;;;;11.20;8.40;;;;;;;;;;5014348;28;20045;-77
2022/04/20 08:42:17;;;;;;;11.38;7.78;;;;;;;;;;5013151;28;20077;-77
2022/04/20 08:44:48;;;;;;;12.10;7.30;;;;;;;;;;5012844;28;20057;-78
2022/04/20 08:47:20;;;;;;;9.68;7.13;;;;;;;;;;4999266;28;20050;-78
2022/04/20 08:49:48;;;;;;;9.63;6.75;;;;;;;;;;4998322;28;20117;-78
2022/04/20 08:55:04;;;;;;;9.50;6.80;;;;;;;;;;4995727;28;20160;-77
2022/04/20 08:57:33;;;;;;;10.63;7.78;;;;;;;;;;4995473;28;20109;-78
2022/04/20 09:00:00;;;;;;;12.68;7.32;;;;;;;;;;4995191;28;20505;-78
2022/04/20 09:02:28;;;;;;;10.05;6.40;;;;;;;;;;4993936;28;20050;-78
2022/04/20 09:04:56;;;;;;;10.07;6.10;;;;;;;;;;4993203;28;20133;-77
2022/04/20 09:07:25;;;;;;;10.00;6.13;;;;;;;;;;4992724;28;20047;-77
2022/04/20 09:09:52;;;;;;;9.20;6.57;;;;;;;;;;4990880;28;20051;-76
2022/04/20 09:12:20;;;;;;;9.10;6.60;;;;;;;;;;4991278;28;20490;-77
2022/04/20 09:14:50;;;;;;;10.23;7.20;;;;;;;;;;4990883;28;20073;-76
2022/04/20 09:17:18;;;;;;;10.38;7.05;;;;;;;;;;4991077;28;20050;-77
2022/04/20 09:19:45;;;;;;;10.48;7.82;;;;;;;;;;4990687;28;20054;-77
2022/04/20 09:22:21;;;;;;;11.20;7.43;;;;;;;;;;4991178;28;20552;-77
2022/04/20 09:25:08;;;;;;;10.70;7.28;;;;;;;;;;4990139;28;20089;-78
2022/04/20 09:27:36;;;;;;;9.38;6.88;;;;;;;;;;4989954;28;20050;-78
2022/04/20 09:30:07;;;;;;;9.93;6.50;;;;;;;;;;4990616;28;20046;-76
2022/04/20 09:32:35;;;;;;;9.00;6.13;;;;;;;;;;4990950;28;20157;-75
2022/04/20 09:35:05;;;;;;;9.70;6.55;;;;;;;;;;4990429;28;20050;-77
2022/04/20 09:37:32;;;;;;;9.45;6.68;;;;;;;;;;4991206;28;20050;-77
2022/04/20 09:40:00;;;;;;;10.35;6.95;;;;;;;;;;4992422;28;20054;-77
2022/04/20 09:42:29;;;;;;;10.55;7.00;;;;;;;;;;4993604;28;20046;-77
2022/04/20 09:44:59;;;;;;;10.48;6.78;;;;;;;;;;5009149;28;20054;-77
2022/04/20 09:50:13;;;;;;;10.20;6.43;;;;;;;;;;5014640;28;20420;-77
2022/04/20 09:52:42;;;;;;;8.95;5.80;;;;;;;;;;5014110;28;20100;-78
2022/04/20 09:55:12;;;;;;;9.93;6.50;;;;;;;;;;5015255;28;20076;-76
2022/04/20 09:57:41;;;;;;;8.45;6.10;;;;;;;;;;5037514;28;20046;-78
2022/04/20 10:00:10;;;;;;;9.40;6.68;;;;;;;;;;5037701;28;20064;-76
2022/04/20 10:02:38;;;;;;;10.93;7.40;;;;;;;;;;5037851;28;20038;-76
2022/04/20 10:05:06;;;;;;;9.85;7.40;;;;;;;;;;5036605;28;20046;-78
2022/04/20 10:07:33;;;;;;;8.73;5.90;;;;;;;;;;5017632;28;20508;-78
2022/04/20 10:10:00;;;;;;;9.93;6.90;;;;;;;;;;5012618;28;20057;-78
2022/04/20 10:12:30;;;;;;;8.93;5.75;;;;;;;;;;5014703;28;20057;-78
2022/04/20 10:17:49;;;;;;;8.73;5.77;;;;;;;;;;5008447;28;20064;-78
2022/04/20 10:20:16;;;;;;;8.85;6.43;;;;;;;;;;5014231;28;20042;-80
2022/04/20 10:22:44;;;;;;;8.27;6.05;;;;;;;;;;5016471;28;20585;-77
2022/04/20 10:25:13;;;;;;;8.23;6.05;;;;;;;;;;5014877;28;20093;-79
2022/04/20 10:27:55;;;;;;;8.73;6.35;;;;;;;;;;5015771;28;20448;-79
2022/04/20 10:30:31;;;;;;;7.88;5.50;;;;;;;;;;5015854;28;20054;-79
2022/04/20 10:33:04;;;;;;;9.80;6.35;;;;;;;;;;5016444;28;20076;-81
2022/04/20 10:35:32;;;;;;;12.18;6.40;;;;;;;;;;5014976;28;20061;-78
2022/04/20 10:38:10;;;;;;;9.52;6.13;;;;;;;;;;5013063;28;20046;-76
2022/04/20 10:40:59;;;;;;;8.70;6.28;;;;;;;;;;5013301;28;20142;-78
2022/04/20 10:43:27;;;;;;;8.80;6.30;;;;;;;;;;5015248;28;20045;-79
2022/04/20 10:46:11;;;;;;;10.20;5.65;;;;;;;;;;5009300;28;20046;-79
2022/04/20 10:48:48;;;;;;;10.13;6.35;;;;;;;;;;5000663;28;20046;-80
2022/04/20 10:54:24;;;;;;;8.93;6.38;;;;;;;;;;4995006;28;20054;-83
2022/04/20 10:57:10;;;;;;;9.65;6.57;;;;;;;;;;4997992;28;20050;-77
2022/04/20 10:59:39;;;;;;;8.23;5.47;;;;;;;;;;4998790;28;20050;-78
2022/04/20 11:02:12;;;;;;;7.50;5.03;;;;;;;;;;5013982;28;20050;-77
2022/04/20 11:04:42;;;;;;;8.52;5.30;;;;;;;;;;5012741;28;20053;-76
2022/04/20 11:07:26;;;;;;;7.95;5.63;;;;;;;;;;5013400;28;20056;-77
2022/04/20 11:10:08;;;;;;;6.82;4.63;;;;;;;;;;5012152;28;20046;-77
2022/04/20 11:18:45;;;;;;;5.30;3.83;;;;;;;;;;4970337;28;20074;-77
2022/04/20 11:21:16;;;;;;;5.90;3.70;;;;;;;;;;5009973;28;20069;-76
2022/04/20 11:24:06;;;;;;;11.32;6.85;;;;;;;;;;5011899;28;20045;-76
2022/04/20 11:26:37;;;;;;;10.32;5.60;;;;;;;;;;5011555;28;20061;-77
2022/04/20 11:29:10;;;;;;;7.63;4.85;;;;;;;;;;5011656;28;20073;-76
2022/04/20 11:31:40;;;;;;;5.68;4.18;;;;;;;;;;5012132;28;20068;-77
2022/04/20 11:34:08;;;;;;;6.88;4.55;;;;;;;;;;5012172;28;20045;-76
2022/04/20 11:36:39;;;;;;;7.78;5.18;;;;;;;;;;4995277;28;20113;-76
2022/04/20 11:39:07;;;;;;;5.40;3.90;;;;;;;;;;5008595;28;20054;-75
2022/04/20 11:41:35;;;;;;;6.25;4.15;;;;;;;;;;5011317;28;20072;-76
2022/04/20 11:44:02;;;;;;;7.75;4.15;;;;;;;;;;5011598;28;20090;-77
2022/04/20 11:46:31;;;;;;;6.75;4.47;;;;;;;;;;5011546;28;20054;-76
2022/04/20 11:48:59;;;;;;;6.13;4.60;;;;;;;;;;5011280;28;20053;-76
2022/04/20 11:51:31;;;;;;;8.95;6.22;;;;;;;;;;5012179;28;20042;-79
2022/04/20 11:53:58;;;;;;;6.85;3.92;;;;;;;;;;5014210;28;20583;-78
2022/04/20 11:56:36;;;;;;;6.00;3.97;;;;;;;;;;5014407;28;20046;-78
2022/04/20 11:59:05;;;;;;;5.75;3.80;;;;;;;;;;5014027;28;20536;-75
2022/04/20 12:01:33;;;;;;;6.22;4.13;;;;;;;;;;5011933;28;20124;-77
2022/04/20 12:04:11;;;;;;;9.43;5.90;;;;;;;;;;5010918;28;20472;-77
2022/04/20 12:06:44;;;;;;;7.28;4.68;;;;;;;;;;5009743;28;20061;-76
2022/04/20 12:09:11;;;;;;;8.60;5.15;;;;;;;;;;5010695;28;20081;-76
2022/04/20 12:11:38;;;;;;;5.57;4.28;;;;;;;;;;5011016;28;20104;-76
2022/04/20 12:14:05;;;;;;;8.23;4.72;;;;;;;;;;5007098;28;20042;-76
2022/04/20 12:16:34;;;;;;;6.78;4.05;;;;;;;;;;4991479;28;20460;-76
2022/04/20 12:19:02;;;;;;;6.47;3.72;;;;;;;;;;4995206;28;20046;-76
2022/04/20 12:21:44;;;;;;;6.90;3.90;;;;;;;;;;4996183;28;20046;-76
2022/04/20 12:24:17;;;;;;;5.38;4.28;;;;;;;;;;4996236;28;20105;-76
2022/04/20 12:26:46;;;;;;;7.50;4.03;;;;;;;;;;4993696;28;20108;-77
2022/04/20 12:29:14;;;;;;;8.43;4.80;;;;;;;;;;4999032;28;20058;-81
2022/04/20 12:31:43;;;;;;;7.15;4.47;;;;;;;;;;4998865;28;20058;-76
2022/04/20 12:34:12;;;;;;;8.82;5.80;;;;;;;;;;4992249;28;20074;-75
2022/04/20 12:36:59;;;;;;;5.82;4.72;;;;;;;;;;4990492;28;20046;-77
2022/04/20 12:39:27;;;;;;;6.68;4.55;;;;;;;;;;4995443;28;20653;-77
2022/04/20 12:41:56;;;;;;;7.35;5.45;;;;;;;;;;4999706;28;20054;-76
2022/04/20 12:44:54;;;;;;;8.18;5.55;;;;;;;;;;5004724;28;20050;-75
2022/04/20 12:47:34;;;;;;;7.80;4.43;;;;;;;;;;4982711;28;20043;-76
2022/04/20 12:50:25;;;;;;;7.00;4.97;;;;;;;;;;5007721;28;20440;-76
2022/04/20 12:52:59;;;;;;;7.15;4.40;;;;;;;;;;5012307;28;20073;-76
2022/04/20 12:55:40;;;;;;;5.72;4.47;;;;;;;;;;5032064;28;20137;-78
2022/04/20 13:03:42;;;;;;;5.60;3.95;;;;;;;;;;5010071;28;20086;-76
2022/04/20 13:06:13;;;;;;;6.50;4.60;;;;;;;;;;5009578;28;20625;-77
2022/04/20 13:08:45;;;;;;;8.55;5.57;;;;;;;;;;5009847;28;20046;-76
2022/04/20 13:11:13;;;;;;;5.65;4.60;;;;;;;;;;5010214;28;20061;-77
2022/04/20 13:13:40;;;;;;;6.35;4.63;;;;;;;;;;5010308;28;20057;-77
2022/04/20 13:16:10;;;;;;;7.65;5.28;;;;;;;;;;5010086;28;20053;-77
2022/04/20 13:18:41;;;;;;;6.75;5.03;;;;;;;;;;5008162;28;20046;-77
2022/04/20 13:21:10;;;;;;;7.78;5.05;;;;;;;;;;4994254;28;20098;-76
2022/04/20 13:23:37;;;;;;;9.48;5.40;;;;;;;;;;4994194;28;20089;-76
2022/04/20 13:28:49;;;;;;;7.53;5.35;;;;;;;;;;4995247;28;20061;-76
2022/04/20 13:31:17;;;;;;;7.68;6.28;;;;;;;;;;4994568;28;20057;-78
2022/04/20 13:33:44;;;;;;;9.13;6.28;;;;;;;;;;4995422;28;20456;-77
2022/04/20 13:36:11;;;;;;;7.38;6.00;;;;;;;;;;4994198;28;20046;-76
2022/04/20 13:38:38;;;;;;;7.43;6.18;;;;;;;;;;4994331;28;20086;-77
2022/04/20 13:41:07;;;;;;;7.00;5.30;;;;;;;;;;4994225;28;20120;-76
2022/04/20 13:43:34;;;;;;;6.75;5.30;;;;;;;;;;4994028;28;20047;-76
2022/04/20 13:46:01;;;;;;;7.18;6.03;;;;;;;;;;5003626;28;20046;-77
2022/04/20 13:48:28;;;;;;;7.35;5.43;;;;;;;;;;5014091;28;20096;-77
2022/04/20 13:50:55;;;;;;;7.15;5.53;;;;;;;;;;5013012;28;20045;-76
2022/04/20 13:53:22;;;;;;;7.57;5.88;;;;;;;;;;5006287;28;20588;-77
2022/04/20 13:55:49;;;;;;;7.05;5.57;;;;;;;;;;5015476;28;20050;-76
2022/04/20 13:58:17;;;;;;;7.65;5.90;;;;;;;;;;5005588;28;20058;-76
2022/04/20 14:00:44;;;;;;;7.18;6.20;;;;;;;;;;5000994;28;20050;-76
2022/04/20 14:03:10;;;;;;;7.53;6.07;;;;;;;;;;4993785;28;20050;-77
2022/04/20 14:05:37;;;;;;;7.80;6.10;;;;;;;;;;4993016;28;20042;-76
2022/04/20 14:08:05;;;;;;;7.72;6.68;;;;;;;;;;4993065;28;20052;-77
2022/04/20 14:10:31;;;;;;;7.28;6.57;;;;;;;;;;4993264;28;20046;-75
2022/04/20 14:12:58;;;;;;;5.95;5.00;;;;;;;;;;4993491;28;20046;-76
2022/04/20 14:15:27;;;;;;;6.90;5.50;;;;;;;;;;4993049;28;20050;-77
2022/04/20 14:17:55;;;;;;;7.32;5.28;;;;;;;;;;4993082;28;20056;-75
2022/04/20 14:20:22;;;;;;;6.43;5.53;;;;;;;;;;4992951;28;20494;-76
2022/04/20 14:22:49;;;;;;;7.50;6.10;;;;;;;;;;4992951;28;20053;-76
2022/04/20 14:33:30;;;;;;;8.15;5.43;;;;;;;;;;4992881;28;20138;-75
2022/04/20 14:35:57;;;;;;;7.20;5.80;;;;;;;;;;4991990;28;20046;-75
2022/04/20 14:38:25;;;;;;;7.55;4.97;;;;;;;;;;4992151;28;20054;-76
2022/04/20 14:40:52;;;;;;;8.05;5.85;;;;;;;;;;4992350;28;20501;-76
2022/04/20 14:43:22;;;;;;;6.72;4.90;;;;;;;;;;4992662;28;20053;-76
2022/04/20 14:45:50;;;;;;;7.00;5.85;;;;;;;;;;4993181;28;20054;-74
2022/04/20 14:48:17;;;;;;;5.78;4.68;;;;;;;;;;4993098;28;20383;-76
2022/04/20 14:50:45;;;;;;;10.05;5.43;;;;;;;;;;4992963;28;20069;-76
2022/04/20 14:53:12;;;;;;;6.93;5.30;;;;;;;;;;4992470;28;20047;-75
2022/04/20 14:55:39;;;;;;;6.72;5.47;;;;;;;;;;4992326;28;20058;-77
2022/04/20 14:58:07;;;;;;;6.68;5.40;;;;;;;;;;4992389;28;20058;-76
2022/04/20 15:00:34;;;;;;;5.90;4.60;;;;;;;;;;4992299;28;20457;-76
2022/04/20 15:03:02;;;;;;;7.60;5.68;;;;;;;;;;4992023;28;20054;-76
2022/04/20 15:05:29;;;;;;;6.22;4.70;;;;;;;;;;4991505;28;20039;-76
2022/04/20 15:07:57;;;;;;;7.38;5.72;;;;;;;;;;4992010;28;20050;-77
2022/04/20 15:10:24;;;;;;;6.45;5.70;;;;;;;;;;4992204;28;20046;-76
2022/04/20 15:12:51;;;;;;;6.13;5.25;;;;;;;;;;4992679;28;20050;-76
2022/04/20 15:15:18;;;;;;;6.43;5.18;;;;;;;;;;4992464;28;20133;-76
2022/04/20 15:17:45;;;;;;;7.43;5.35;;;;;;;;;;4993144;28;20046;-76
2022/04/20 15:20:14;;;;;;;7.95;6.03;;;;;;;;;;4992505;28;20141;-76
2022/04/20 15:22:42;;;;;;;6.20;5.40;;;;;;;;;;4991837;28;20043;-76
2022/04/20 15:25:10;;;;;;;6.95;5.13;;;;;;;;;;4991737;28;20588;-76
2022/04/20 15:27:37;;;;;;;7.03;5.47;;;;;;;;;;4992345;28;20137;-76